createdAt,value
2018-06-30T00:01:14.259Z,18.69
2018-06-30T00:06:18.068Z,18.61
2018-06-30T00:11:21.677Z,18.62
2018-06-30T00:16:25.325Z,18.59
2018-06-30T00:21:30.456Z,18.47
2018-06-30T00:26:33.949Z,18.44
2018-06-30T00:31:37.748Z,18.41
2018-06-30T00:36:41.291Z,18.36
2018-06-30T00:41:44.946Z,18.39
2018-06-30T00:46:48.688Z,18.41
2018-06-30T00:51:52.288Z,18.39
2018-06-30T00:56:56.561Z,18.42
2018-06-30T01:02:00.144Z,18.43
2018-06-30T01:07:04.207Z,18.34
2018-06-30T01:12:07.885Z,18.43
2018-06-30T01:17:11.403Z,18.45
2018-06-30T01:22:15.186Z,18.30
2018-06-30T01:27:19.307Z,18.23
2018-06-30T01:32:23.852Z,18.14
2018-06-30T01:37:27.356Z,18.08
2018-06-30T01:42:30.949Z,18.04
2018-06-30T01:47:35.447Z,17.92
2018-06-30T01:52:39.674Z,17.91
2018-06-30T01:57:43.397Z,17.81
2018-06-30T02:02:46.973Z,17.79
2018-06-30T02:07:50.540Z,17.69
2018-06-30T02:12:54.132Z,17.64
2018-06-30T02:17:58.692Z,17.44
2018-06-30T02:23:02.265Z,17.43
2018-06-30T02:28:05.841Z,17.45
2018-06-30T02:33:09.433Z,17.45
2018-06-30T02:38:12.952Z,17.45
2018-06-30T02:43:16.729Z,17.50
2018-06-30T02:48:20.258Z,17.54
2018-06-30T02:53:24.082Z,17.57
2018-06-30T02:58:27.635Z,17.67
2018-06-30T03:03:31.902Z,17.59
2018-06-30T03:08:35.552Z,17.60
2018-06-30T03:13:39.975Z,17.65
2018-06-30T03:18:44.009Z,17.61
2018-06-30T03:23:47.567Z,17.65
2018-06-30T03:28:51.109Z,17.70
2018-06-30T03:33:54.707Z,17.63
2018-06-30T03:38:58.287Z,17.68
2018-06-30T03:44:02.120Z,17.60
2018-06-30T03:49:05.726Z,17.63
2018-06-30T03:54:09.293Z,18.00
2018-06-30T03:59:12.862Z,17.97
2018-06-30T04:04:16.405Z,18.16
2018-06-30T04:09:20.826Z,18.43
2018-06-30T04:14:24.865Z,18.16
2018-06-30T04:19:28.551Z,17.94
2018-06-30T04:24:32.115Z,17.85
2018-06-30T04:29:35.619Z,17.77
2018-06-30T04:34:39.165Z,17.79
2018-06-30T04:39:42.649Z,17.72
2018-06-30T04:44:46.198Z,17.72
2018-06-30T04:49:49.958Z,17.85
2018-06-30T04:54:53.831Z,19.14
2018-06-30T04:59:57.426Z,20.70
2018-06-30T05:05:01.155Z,21.83
2018-06-30T05:10:04.723Z,21.60
2018-06-30T05:15:08.520Z,21.46
2018-06-30T05:20:12.101Z,21.75
2018-06-30T05:25:15.693Z,20.76
2018-06-30T05:30:28.022Z,19.27
2018-06-30T05:35:31.591Z,19.14
2018-06-30T05:40:35.116Z,19.15
2018-06-30T05:45:38.922Z,18.96
2018-06-30T05:50:42.408Z,19.12
2018-06-30T05:55:46.166Z,19.23
2018-06-30T06:00:49.760Z,19.26
2018-06-30T06:05:53.313Z,19.45
2018-06-30T06:10:56.821Z,19.60
2018-06-30T06:16:00.370Z,19.79
2018-06-30T06:21:04.796Z,19.83
2018-06-30T06:26:08.383Z,20.16
2018-06-30T06:31:11.889Z,20.41
2018-06-30T06:36:15.490Z,20.55
2018-06-30T06:41:19.200Z,20.52
2018-06-30T06:46:22.757Z,20.95
2018-06-30T06:51:26.774Z,20.76
2018-06-30T06:56:30.973Z,20.50
2018-06-30T07:01:34.714Z,21.13
2018-06-30T07:06:39.190Z,21.22
2018-06-30T07:11:42.694Z,21.09
2018-06-30T07:16:46.317Z,21.67
2018-06-30T07:21:50.004Z,21.58
2018-06-30T07:26:53.516Z,21.62
2018-06-30T07:31:57.253Z,21.90
2018-06-30T07:37:01.397Z,21.61
2018-06-30T07:42:05.033Z,22.19
2018-06-30T07:47:09.174Z,22.23
2018-06-30T07:52:12.658Z,22.01
2018-06-30T07:57:16.457Z,21.75
2018-06-30T08:02:20.121Z,22.43
2018-06-30T08:07:24.356Z,22.47
2018-06-30T08:12:27.788Z,22.42
2018-06-30T08:17:31.617Z,22.54
2018-06-30T08:22:35.762Z,22.92
2018-06-30T08:27:39.323Z,23.31
2018-06-30T08:32:42.815Z,23.40
2018-06-30T08:37:46.337Z,23.18
2018-06-30T08:42:49.831Z,23.14
2018-06-30T08:47:53.406Z,23.49
2018-06-30T08:52:56.881Z,22.88
2018-06-30T08:58:00.912Z,23.40
2018-06-30T09:03:05.000Z,23.84
2018-06-30T09:08:08.550Z,23.67
2018-06-30T09:13:12.140Z,23.71
2018-06-30T09:18:16.302Z,23.74
2018-06-30T09:23:20.142Z,23.43
2018-06-30T09:28:23.834Z,23.90
2018-06-30T09:33:28.029Z,23.86
2018-06-30T09:38:32.913Z,24.16
2018-06-30T09:43:37.281Z,24.61
2018-06-30T09:48:41.555Z,24.40
2018-06-30T09:53:45.357Z,24.73
2018-06-30T09:58:49.156Z,24.74
2018-06-30T10:03:52.693Z,24.36
2018-06-30T10:08:56.258Z,24.60
2018-06-30T10:13:59.849Z,24.62
2018-06-30T10:19:03.547Z,25.02
2018-06-30T10:24:07.104Z,24.49
2018-06-30T10:29:10.609Z,24.83
2018-06-30T10:34:14.151Z,24.82
2018-06-30T10:39:17.864Z,24.97
2018-06-30T10:44:21.563Z,25.31
2018-06-30T10:49:25.401Z,25.35
2018-06-30T10:54:29.024Z,25.13
2018-06-30T10:59:32.765Z,25.29
2018-06-30T11:04:37.771Z,25.15
2018-06-30T11:09:41.252Z,25.50
2018-06-30T11:14:45.061Z,25.64
2018-06-30T11:19:48.572Z,25.93
2018-06-30T11:24:52.307Z,25.98
2018-06-30T11:29:55.898Z,25.69
2018-06-30T11:35:00.545Z,25.93
2018-06-30T11:40:04.965Z,25.96
2018-06-30T11:45:08.801Z,26.14
2018-06-30T11:50:12.982Z,25.92
2018-06-30T11:55:16.502Z,26.24
2018-06-30T12:00:34.190Z,26.02
2018-06-30T12:05:38.571Z,26.38
2018-06-30T12:10:42.317Z,26.07
2018-06-30T12:15:46.204Z,26.30
2018-06-30T12:20:49.715Z,26.28
2018-06-30T12:25:53.604Z,26.33
2018-06-30T12:30:57.116Z,26.36
2018-06-30T12:36:01.559Z,26.58
2018-06-30T12:41:05.302Z,26.43
2018-06-30T12:46:09.069Z,26.30
2018-06-30T12:51:12.650Z,26.45
2018-06-30T12:56:16.218Z,26.49
2018-06-30T13:01:19.875Z,26.53
2018-06-30T13:06:23.452Z,26.12
2018-06-30T13:11:27.664Z,26.63
2018-06-30T13:16:31.571Z,26.71
2018-06-30T13:21:35.054Z,26.81
2018-06-30T13:26:38.876Z,26.88
2018-06-30T13:31:42.424Z,26.96
2018-06-30T13:36:46.155Z,26.86
2018-06-30T13:41:49.765Z,26.69
2018-06-30T13:46:53.521Z,26.73
2018-06-30T13:51:57.090Z,26.91
2018-06-30T13:57:00.648Z,26.87
2018-06-30T14:02:05.995Z,26.79
2018-06-30T14:07:09.711Z,26.65
2018-06-30T14:12:13.205Z,26.58
2018-06-30T14:17:16.957Z,26.69
2018-06-30T14:22:20.490Z,26.69
2018-06-30T14:27:24.918Z,26.69
2018-06-30T14:32:28.557Z,26.54
2018-06-30T14:37:32.209Z,26.62
2018-06-30T14:42:35.725Z,26.82
2018-06-30T14:47:39.443Z,26.31
2018-06-30T14:52:43.394Z,26.66
2018-06-30T14:57:47.196Z,26.57
2018-06-30T15:02:50.900Z,26.56
2018-06-30T15:07:54.576Z,26.55
2018-06-30T15:12:58.075Z,26.25
2018-06-30T15:18:01.886Z,26.10
2018-06-30T15:23:05.641Z,26.30
2018-06-30T15:28:10.123Z,26.30
2018-06-30T15:33:13.653Z,26.38
2018-06-30T15:38:17.237Z,26.11
2018-06-30T15:43:20.782Z,26.44
2018-06-30T15:48:24.552Z,26.34
2018-06-30T15:53:28.028Z,26.28
2018-06-30T15:58:31.557Z,26.24
2018-06-30T16:03:35.085Z,26.00
2018-06-30T16:08:39.077Z,26.08
2018-06-30T16:13:42.629Z,25.93
2018-06-30T16:18:46.261Z,25.92
2018-06-30T16:23:49.911Z,25.85
2018-06-30T16:28:55.065Z,25.70
2018-06-30T16:33:58.796Z,25.68
2018-06-30T16:39:03.972Z,26.11
2018-06-30T16:44:08.728Z,26.77
2018-06-30T16:49:12.632Z,27.48
2018-06-30T16:54:16.900Z,27.55
2018-06-30T16:59:22.465Z,26.68
2018-06-30T17:04:26.014Z,25.96
2018-06-30T17:09:30.331Z,25.80
2018-06-30T17:14:35.248Z,25.39
2018-06-30T17:19:39.333Z,25.27
2018-06-30T17:24:43.268Z,24.87
2018-06-30T17:29:47.464Z,24.74
2018-06-30T17:34:51.786Z,24.71
2018-06-30T17:39:55.859Z,24.70
2018-06-30T17:44:59.377Z,24.49
2018-06-30T17:50:02.984Z,24.41
2018-06-30T17:55:07.699Z,24.30
2018-06-30T18:00:13.442Z,24.17
2018-06-30T18:05:16.994Z,24.01
2018-06-30T18:10:20.482Z,24.03
2018-06-30T18:15:24.058Z,23.89
2018-06-30T18:20:27.771Z,23.79
2018-06-30T18:25:31.350Z,23.70
2018-06-30T18:30:39.152Z,23.69
2018-06-30T18:35:42.723Z,23.51
2018-06-30T18:40:46.716Z,23.44
2018-06-30T18:45:50.417Z,23.30
2018-06-30T18:50:53.924Z,23.14
2018-06-30T18:55:58.499Z,22.92
2018-06-30T19:01:02.051Z,22.83
2018-06-30T19:06:06.177Z,22.72
2018-06-30T19:11:09.616Z,22.72
2018-06-30T19:16:13.273Z,22.55
2018-06-30T19:21:16.822Z,22.43
2018-06-30T19:26:20.401Z,22.22
2018-06-30T19:31:24.623Z,22.06
2018-06-30T19:36:28.218Z,21.96
2018-06-30T19:41:31.990Z,21.85
2018-06-30T19:46:35.710Z,21.73
2018-06-30T19:51:39.287Z,21.61
2018-06-30T19:56:42.853Z,21.46
2018-06-30T20:01:46.335Z,21.31
2018-06-30T20:06:50.007Z,21.05
2018-06-30T20:11:53.506Z,20.85
2018-06-30T20:16:57.089Z,20.72
2018-06-30T20:22:02.605Z,20.55
2018-06-30T20:27:07.121Z,20.43
2018-06-30T20:32:10.634Z,20.38
2018-06-30T20:37:16.377Z,20.20
2018-06-30T20:42:20.435Z,20.09
2018-06-30T20:47:25.026Z,19.98
2018-06-30T20:52:29.121Z,19.87
2018-06-30T20:57:34.541Z,19.79
2018-06-30T21:02:39.062Z,19.77
2018-06-30T21:07:44.410Z,19.70
2018-06-30T21:12:48.339Z,19.64
2018-06-30T21:17:51.937Z,19.55
2018-06-30T21:22:55.571Z,19.56
2018-06-30T21:28:00.791Z,19.51
2018-06-30T21:33:04.902Z,19.48
2018-06-30T21:38:08.489Z,19.44
2018-06-30T21:43:12.003Z,19.38
2018-06-30T21:48:15.875Z,19.27
2018-06-30T21:53:19.384Z,19.27
2018-06-30T21:58:22.957Z,19.19
2018-06-30T22:03:27.724Z,19.09
2018-06-30T22:08:31.317Z,19.01
2018-06-30T22:13:34.877Z,18.98
2018-06-30T22:18:39.462Z,18.88
2018-06-30T22:23:44.228Z,18.74
2018-06-30T22:28:47.835Z,18.73
2018-06-30T22:33:51.669Z,18.63
2018-06-30T22:38:56.538Z,18.62
2018-06-30T22:44:00.069Z,18.54
2018-06-30T22:49:04.969Z,18.47
2018-06-30T22:54:08.692Z,18.40
2018-06-30T22:59:12.272Z,18.33
2018-06-30T23:04:15.841Z,18.34
2018-06-30T23:09:21.577Z,18.25
2018-06-30T23:14:25.842Z,18.23
2018-06-30T23:19:29.399Z,18.07
2018-06-30T23:24:33.416Z,18.01
2018-06-30T23:29:37.257Z,18.01
2018-06-30T23:34:40.844Z,17.89
2018-06-30T23:39:44.365Z,17.77
2018-06-30T23:44:47.869Z,17.66
2018-06-30T23:49:52.408Z,17.60
2018-06-30T23:54:56.083Z,17.50
2018-06-30T23:59:59.793Z,17.46
